• Join FlightAware (Why Join?)
  • Login
  • US Flag 
09:06PM EDT


 

Airport Tracker/Info


-or-


 

Live Flight TrackerFlight Track Log ✈ N810DA ✈ 20-Jun-2013 ✈ KMCB - KCXO

Flight Track Log - Related Links

Times and Time Zones

All times are in EDT time to prevent confusion due to time zone crossing. See the N810DA flight status page for this flight to view local times or setup timezone preferences in your user account.

Time Position Orientation Groundspeed Altitude Reporting Facility
EDT Latitude Longitude Course Direction KTS MPH feet Rate Location/Type
02:54PM 31.1908 -90.5958 277° West 77 89 3,400  Level Houston Center
02:55PM 31.1925 -90.6197 275° West 76 87 3,900 480 Climbing Houston Center
02:56PM 31.1931 -90.6444 272° West 75 86 4,400 360 Climbing Houston Center
02:57PM 31.1833 -90.6285 270° West  Level FlightAware Approximate
02:57PM 31.1939 -90.6689 272° West 75 86 4,700  Level Houston Center
02:58PM 31.1625 -90.6503 222° Southwest  Level FlightAware Approximate
02:58PM 31.1953 -90.6942 274° West 76 87 5,200  Level Houston Center
02:59PM 31.1964 -90.7244 272° West 77 89 5,800 480 Climbing Houston Center
03:00PM 31.1958 -90.7506 269° West 79 91 6,200 360 Climbing Houston Center
03:01PM 31.1942 -90.7750 265° West 77 89 6,600 360 Climbing Houston Center
03:02PM 31.1931 -90.7997 267° West 76 87 7,000 420 Climbing Houston Center
03:03PM 31.1947 -90.8242 275° West 76 87 7,500 420 Climbing Houston Center
03:04PM 31.1978 -90.8578 276° West 84 97 7,900 240 Climbing Houston Center
03:05PM 31.1981 -90.8850 271° West 85 98 8,100 60 Climbing Houston Center
03:06PM 31.2008 -90.9158 276° West 92 106 8,100  Level Houston Center
03:07PM 31.2050 -90.9478 279° West 99 114 8,200 60 Climbing Houston Center
03:08PM 31.2106 -90.9792 282° West 98 113 8,300 60 Climbing Houston Center
03:09PM 31.2131 -91.0128 275° West 102 117 8,400 -60 Climbing Houston Center
03:10PM 31.2128 -91.0547 270° West 106 122 8,200 -120 Descending Houston Center
03:11PM 31.2139 -91.0917 272° West 113 130 8,200  Level Houston Center
03:12PM 31.2144 -91.1250 271° West 106 122 8,300  Climbing Houston Center
03:13PM 31.2172 -91.1586 276° West 104 120 8,200 -60 Descending Houston Center
03:14PM 31.2178 -91.1928 271° West 105 121 8,200  Level Houston Center
03:16PM 31.2183 -91.2333 271° West 105 121 8,200  Level Houston Center
03:17PM 31.2197 -91.2672 273° West 105 121 8,200  Level Houston Center
03:18PM 31.2239 -91.2997 279° West 102 117 8,200  Level Houston Center
03:19PM 31.2244 -91.3339 271° West 103 119 8,200  Level Houston Center
03:20PM 31.2219 -91.3675 265° West 103 119 8,200  Level Houston Center
03:20PM 31.2219 -91.3956 270° West 101 116 8,200 -120 Level Houston Center
03:21PM 31.2222 -91.4272 271° West 108 124 8,100 -120 Descending Houston Center
03:22PM 31.2233 -91.4406 276° West 112 129 8,100  Level Houston Center
03:23PM 31.2233 -91.4747 270° West 107 123 8,100 -60 Level Houston Center
03:24PM 31.2267 -91.5169 275° West 108 124 8,000 -60 Descending Houston Center
03:25PM 31.2297 -91.5508 276° West 106 122 8,000  Level Houston Center
03:26PM 31.2314 -91.5844 273° West 105 121 8,000  Level Houston Center
03:27PM 31.2333 -91.6197 274° West 108 124 8,000  Level Houston Center
03:28PM 31.2353 -91.6542 274° West 107 123 8,100  Climbing Houston Center
03:29PM 31.2372 -91.6964 273° West 109 125 8,100 -60 Level Houston Center
03:30PM 31.2353 -91.7317 266° West 108 124 8,000  Descending Houston Center
03:31PM 31.2336 -91.7667 267° West 107 123 8,100  Climbing Houston Center
03:32PM 31.2328 -91.8003 268° West 104 120 8,000 -120 Descending Houston Center
03:33PM 31.2333 -91.8344 271° West 104 120 7,900 -60 Descending Houston Center
03:34PM 31.2325 -91.8672 268° West 102 117 7,900 60 Level Houston Center
03:35PM 31.2356 -91.9061 275° West 100 115 8,100 60 Climbing Houston Center
03:36PM 31.2367 -91.9400 272° West 103 119 8,100 -60 Level Houston Center
03:37PM 31.2372 -91.9767 271° West 109 125 8,000 -60 Descending Houston Center
03:38PM 31.2403 -92.0111 276° West 109 125 8,000  Level Houston Center
03:39PM 31.2406 -92.0519 270° West 105 121 8,000  Level Houston Center
03:40PM 31.2431 -92.0858 275° West 107 123 8,000  Level Houston Center
03:41PM 31.2475 -92.1197 279° West 106 122 8,000  Level Houston Center
03:42PM 31.2494 -92.1536 274° West 106 122 8,100  Climbing Houston Center
03:43PM 31.2500 -92.1875 271° West 102 117 8,100  Level Houston Center
03:44PM 31.2503 -92.2217 271° West 105 121 8,100  Level Houston Center
03:45PM 31.2506 -92.2558 271° West 107 123 8,200  Climbing Houston Center
03:46PM 31.2511 -92.2947 271° West 113 130 8,100 -60 Descending Houston Center
03:47PM 31.2514 -92.3289 271° West 110 127 8,100  Level Houston Center
03:48PM 31.2539 -92.3653 275° West 109 125 8,100  Level Houston Center
03:49PM 31.2564 -92.4017 275° West 113 130 8,100  Level Houston Center
03:50PM 31.2589 -92.4403 274° West 113 130 8,100  Level Houston Center
03:51PM 31.2614 -92.4767 275° West 109 125 8,100 -60 Level Houston Center
03:52PM 31.2658 -92.5106 279° West 109 125 8,000 -60 Descending Houston Center
03:53PM 31.2639 -92.5472 266° West 107 123 8,000  Level Houston Center
03:54PM 31.2661 -92.5786 275° West 107 123 8,000  Level Houston Center
03:56PM 31.2664 -92.6153 271° West 104 120 8,100  Climbing Houston Center
03:57PM 31.2644 -92.6472 266° West 104 120 8,100  Level Houston Center
03:58PM 31.2647 -92.6836 271° West 105 121 8,100  Level Houston Center
03:59PM 31.2667 -92.7150 274° West 105 121 8,100  Level Houston Center
04:00PM 31.2669 -92.7517 271° West 103 119 8,100  Level Houston Center
04:00PM 31.2664 -92.7611 266° West 103 119 8,100 60 Level Houston Center
04:01PM 31.2650 -92.7861 266° West 106 122 8,200 60 Climbing Houston Center
04:01PM 31.2656 -92.8025 272° West 105 121 8,200 -120 Level Houston Center
04:02PM 31.2650 -92.8200 268° West 106 122 8,100 -120 Descending Houston Center
04:02PM 31.2625 -92.8364 260° West 106 122 8,100 60 Level Houston Center
04:03PM 31.2603 -92.8733 266° West 111 128 8,200 60 Climbing Houston Center
04:04PM 31.2617 -92.8958 274° West 110 127 8,200  Level Houston Center
04:04PM 31.2603 -92.9075 262° West 107 123 8,200 -120 Level Houston Center
04:05PM 31.2575 -92.9306 262° West 109 125 8,100 -120 Descending Houston Center
04:05PM 31.2536 -92.9439 251° West 111 128 8,100  Level Houston Center
04:06PM 31.2472 -92.9772 257° West 107 123 8,100  Level Houston Center
04:07PM 31.2414 -93.0208 261° West 112 129 8,100  Level Houston Center
04:08PM 31.2378 -93.0544 263° West 106 122 8,200 60 Climbing Houston Center
04:09PM 31.2353 -93.0761 262° West 106 122 8,200  Level Houston Center
04:09PM 31.2339 -93.0897 263° West 109 125 8,200  Level Houston Center
04:10PM 31.2331 -93.1081 267° West 108 124 8,200 -120 Level Houston Center
04:10PM 31.2308 -93.1247 261° West 110 127 8,100 -120 Descending Houston Center
04:11PM 31.2261 -93.1600 261° West 109 125 8,100  Level Houston Center
04:12PM 31.2244 -93.2042 267° West 113 130 8,100 -60 Level Houston Center
04:14PM 31.2261 -93.2394 273° West 110 127 8,000  Descending Houston Center
04:15PM 31.2231 -93.2867 266° West 111 128 8,100  Climbing Houston Center
04:16PM 31.2242 -93.3136 273° West 110 127 8,100  Level Houston Center
04:17PM 31.2242 -93.3503 270° West 113 130 8,100  Level Houston Center
04:18PM 31.2214 -93.3939 266° West 107 123 8,100  Level Houston Center
04:19PM 31.2189 -93.4183 263° West 106 122 8,100  Level Houston Center
04:20PM 31.2186 -93.4544 269° West 111 128 8,100  Level Houston Center
04:21PM 31.2181 -93.4897 269° West 109 125 8,200 -60 Climbing Houston Center
04:22PM 31.2172 -93.5356 269° West 112 129 8,000 -180 Descending Houston Center
04:23PM 31.2147 -93.5672 265° West 108 124 7,900  Descending Houston Center
04:24PM 31.2150 -93.6039 271° West 108 124 8,000  Climbing Houston Center
04:25PM 31.2125 -93.6358 265° West 97 112 8,000  Level Houston Center
04:26PM 31.2156 -93.6683 276° West 104 120 8,100  Climbing Houston Center
04:27PM 31.2014 -93.7061 246° West 113 130 8,100  Level Houston Center
04:28PM 31.1828 -93.7356 234° Southwest 114 131 8,100  Level Houston Center
04:29PM 31.1661 -93.7642 236° Southwest 109 125 8,100  Level Houston Center
04:30PM 31.1511 -93.7958 241° Southwest 111 128 8,100  Level Houston Center
04:31PM 31.1344 -93.8261 237° Southwest 112 129 8,200  Climbing Houston Center
04:32PM 31.1183 -93.8558 238° Southwest 110 127 8,100 -60 Descending Houston Center
04:33PM 31.0994 -93.8936 240° Southwest 112 129 8,100  Level Houston Center
04:34PM 31.0861 -93.9219 241° Southwest 110 127 8,200  Climbing Houston Center
04:35PM 31.0719 -93.9592 246° West 106 122 8,200 -60 Level Houston Center
04:36PM 31.0608 -93.9933 249° West 110 127 8,100 -60 Descending Houston Center
04:37PM 31.0458 -94.0256 241° Southwest 113 130 8,100  Level Houston Center
04:38PM 31.0333 -94.0575 245° Southwest 108 124 8,100 -240 Level Houston Center
04:39PM 31.0186 -94.0942 245° Southwest 121 139 7,700 -480 Descending Houston Center
04:40PM 31.0017 -94.1278 240° Southwest 120 138 7,200 -360 Descending Houston Center
04:41PM 30.9847 -94.1689 244° Southwest 117 135 7,000 -120 Descending Houston Center
04:42PM 30.9728 -94.1953 242° Southwest 110 127 7,000 60 Level Houston Center
04:44PM 30.9586 -94.2256 241° Southwest 97 112 7,200 60 Climbing Houston Center
04:45PM 30.9442 -94.2539 239° Southwest 99 114 7,200 -60 Level Houston Center
04:46PM 30.9281 -94.2831 237° Southwest 105 121 7,100  Descending Houston Center
04:47PM 30.9119 -94.3100 235° Southwest 102 117 7,200  Climbing Houston Center
04:48PM 30.8928 -94.3433 236° Southwest 103 119 7,100 -120 Descending Houston Center
04:49PM 30.8778 -94.3731 240° Southwest 106 122 7,000  Descending Houston Center
04:50PM 30.8642 -94.4022 241° Southwest 103 119 7,100  Climbing Houston Center
04:51PM 30.8492 -94.4289 237° Southwest 100 115 7,100 -60 Level Houston Center
04:52PM 30.8347 -94.4578 240° Southwest 101 116 7,000  Descending Houston Center
04:53PM 30.8178 -94.4858 235° Southwest 105 121 7,100  Climbing Houston Center
04:54PM 30.8031 -94.5136 238° Southwest 103 119 7,100 -60 Level Houston Center
04:55PM 30.7856 -94.5469 239° Southwest 101 116 7,000 -180 Descending Houston Center
04:56PM 30.7714 -94.5753 240° Southwest 101 116 6,800 -300 Descending Houston Center
04:57PM 30.7611 -94.5969 241° Southwest 112 129 6,600 -360 Descending Houston Center
04:58PM 30.7383 -94.6436 240° Southwest 120 138 6,100 -240 Descending Houston Center
04:59PM 30.7267 -94.6767 248° West 103 119 6,100 -240 Level Houston Center
05:00PM 30.7142 -94.7031 241° Southwest 106 122 5,700 -660 Descending Houston Center
05:01PM 30.6956 -94.7464 243° Southwest 135 155 4,800 -360 Descending Houston Center
05:02PM 30.6839 -94.7794 248° West 114 131 5,000 60 Climbing Houston Center
05:03PM 30.6739 -94.8050 246° West 103 119 5,000 60 Level Houston Center
05:04PM 30.6600 -94.8358 242° Southwest 104 120 5,200 60 Climbing Houston Center
05:05PM 30.6439 -94.8672 239° Southwest 100 115 5,200 -60 Level Houston Center
05:06PM 30.6300 -94.8981 242° Southwest 110 127 5,100 -120 Descending Houston Center
05:07PM 30.6167 -94.9336 246° West 119 137 5,000 -120 Descending Houston Center
05:08PM 30.5967 -94.9678 236° Southwest 114 131 4,900  Descending Houston Center
05:09PM 30.5828 -94.9961 240° Southwest 108 124 5,000  Climbing Houston Center
05:10PM 30.5708 -95.0269 246° West 107 123 4,900 -120 Descending Houston Center
05:11PM 30.5550 -95.0603 241° Southwest 111 128 4,800 -300 Descending Houston Center
05:12PM 30.5392 -95.0939 241° Southwest 122 140 4,300 -600 Descending Houston Center
05:13PM 30.5236 -95.1297 243° Southwest 121 139 3,700 -540 Descending Houston Center
05:14PM 30.5081 -95.1656 243° Southwest 121 139 3,300 -360 Descending Houston Center
05:15PM 30.4925 -95.2014 243° Southwest 116 133 3,000 -120 Descending Houston Center
05:16PM 30.4764 -95.2325 239° Southwest 106 122 3,100 -120 Climbing Houston Center
05:17PM 30.4597 -95.2564 231° Southwest 106 122 2,800 -360 Descending Houston Center
05:18PM 30.4417 -95.2878 236° Southwest 116 133 2,400 -300 Descending Houston Center
05:19PM 30.4256 -95.3189 239° Southwest 109 125 2,300 -240 Descending Houston Center
05:20PM 30.4144 -95.3589 252° West 112 129 2,000 -480 Descending Houston Center
05:21PM 30.4047 -95.3892 250° West 112 129 1,400 -540 Descending Houston Center
05:22PM 30.4003 -95.4006 246° West 109 125 1,300 -300 Descending Houston Center
05:22PM 30.3906 -95.4175 236° Southwest 93 107 1,100 -480 Descending Houston Center
05:23PM 30.3728 -95.4294 210° Southwest 64 74 600 -300 Descending Houston Center
05:24PM 30.3614 -95.4211 148° Southeast 64 74 500 -120 Descending Houston Center